Time;durP1;ratioP1;P1;durP2;ratioP2;P2;SDS_P1;SDS_P2;PMS_P1;PMS_P2;Temp;Humidity;BMP_temperature;BMP_pressure;BME280_temperature;BME280_humidity;BME280_pressure;Samples;Min_cycle;Max_cycle;Signal;HPM_P1;HPM_P2
2022/12/06 00:02:20;;;;;;;25.17;9.83;;;;;;;-2.43;90.38;101769.22;123076;1100;104290;-78
2022/12/06 00:04:51;;;;;;;24.90;10.27;;;;;;;-2.44;89.90;101768.31;123119;1100;104271;-76
2022/12/06 00:07:22;;;;;;;21.20;9.50;;;;;;;-2.44;90.31;101772.55;123124;1102;104178;-78
2022/12/06 00:09:54;;;;;;;20.03;9.80;;;;;;;-2.46;90.19;101764.67;123088;1102;104296;-77
2022/12/06 00:12:25;;;;;;;21.03;8.97;;;;;;;-2.43;89.93;101764.08;123011;1101;104268;-77
2022/12/06 00:14:56;;;;;;;24.77;10.30;;;;;;;-2.42;90.18;101768.48;123024;1102;104654;-77
2022/12/06 00:17:27;;;;;;;21.03;9.47;;;;;;;-2.41;90.25;101757.46;123173;1102;104271;-76
2022/12/06 00:19:58;;;;;;;22.33;9.40;;;;;;;-2.41;90.16;101760.94;123083;1102;104245;-77
2022/12/06 00:22:29;;;;;;;22.97;9.97;;;;;;;-2.41;89.92;101760.03;123152;1100;104345;-77
2022/12/06 00:25:00;;;;;;;23.47;9.33;;;;;;;-2.42;90.48;101755.63;123149;1100;104328;-77
2022/12/06 00:27:31;;;;;;;21.57;8.80;;;;;;;-2.44;90.00;101762.27;123136;1101;104251;-77
2022/12/06 00:30:03;;;;;;;20.33;8.07;;;;;;;-2.45;91.23;101760.44;123145;1102;104271;-76
2022/12/06 00:32:34;;;;;;;21.30;9.47;;;;;;;-2.44;90.89;101757.13;123140;1102;104389;-77
2022/12/06 00:35:07;;;;;;;23.30;10.20;;;;;;;-2.42;90.30;101755.63;123065;1100;104687;-76
2022/12/06 00:37:38;;;;;;;22.63;9.73;;;;;;;-2.40;90.62;101754.12;123227;1102;104248;-76
2022/12/06 00:40:11;;;;;;;20.97;8.83;;;;;;;-2.38;91.07;101757.79;123119;1100;104348;-77
2022/12/06 00:42:42;;;;;;;22.23;8.83;;;;;;;-2.39;91.54;101755.95;123134;1100;104293;-77
2022/12/06 00:45:13;;;;;;;19.77;8.57;;;;;;;-2.40;90.82;101747.34;123089;1102;104270;-77
2022/12/06 00:47:45;;;;;;;21.13;9.03;;;;;;;-2.38;90.79;101747.51;123039;1102;104274;-77
2022/12/06 00:50:16;;;;;;;23.90;9.53;;;;;;;-2.36;91.19;101739.19;123095;1102;104756;-77
2022/12/06 00:52:47;;;;;;;21.27;9.00;;;;;;;-2.36;90.46;101744.33;123015;1102;104271;-77
2022/12/06 00:55:18;;;;;;;21.93;9.43;;;;;;;-2.37;90.46;101750.24;123053;1102;104245;-77
2022/12/06 00:57:49;;;;;;;20.33;9.83;;;;;;;-2.37;90.07;101745.10;123028;1102;104431;-76
2022/12/06 01:00:21;;;;;;;20.47;9.67;;;;;;;-2.36;91.55;101746.00;123064;1102;104226;-76
2022/12/06 01:02:52;;;;;;;19.43;8.90;;;;;;;-2.37;90.38;101739.95;123189;1102;104261;-76
2022/12/06 01:05:24;;;;;;;25.13;10.17;;;;;;;-2.36;90.34;101730.58;122975;1102;104342;-77
2022/12/06 01:07:55;;;;;;;23.53;9.73;;;;;;;-2.33;90.79;101727.43;123119;1102;104344;-76
2022/12/06 01:10:26;;;;;;;23.63;9.63;;;;;;;-2.31;91.02;101729.39;123122;1102;104265;-77
2022/12/06 01:12:57;;;;;;;21.57;10.13;;;;;;;-2.33;91.26;101730.91;123070;1102;104312;-77
2022/12/06 01:15:29;;;;;;;22.03;8.40;;;;;;;-2.32;91.34;101726.66;123149;1102;104354;-76
2022/12/06 01:18:00;;;;;;;21.33;9.90;;;;;;;-2.32;90.99;101731.80;123095;1101;104271;-77
2022/12/06 01:20:31;;;;;;;22.30;10.30;;;;;;;-2.32;90.55;101727.59;123202;1100;104319;-77
2022/12/06 01:23:02;;;;;;;21.43;9.47;;;;;;;-2.31;90.48;101731.97;123092;1102;104460;-77
2022/12/06 01:25:33;;;;;;;23.47;9.90;;;;;;;-2.29;91.66;101721.84;123084;1102;104354;-76
2022/12/06 01:28:04;;;;;;;21.37;9.00;;;;;;;-2.28;91.25;101718.54;123077;1102;105741;-77
2022/12/06 01:30:35;;;;;;;20.40;8.97;;;;;;;-2.30;90.82;101713.23;123062;1100;104300;-77
2022/12/06 01:33:06;;;;;;;21.70;9.85;;;;;;;-2.29;91.02;101711.56;123120;1100;104304;-77
2022/12/06 01:35:42;;;;;;;23.73;9.53;;;;;;;-2.29;91.06;101708.99;123080;1102;104727;-77
2022/12/06 01:38:13;;;;;;;22.53;9.83;;;;;;;-2.27;90.62;101710.98;123040;1102;104699;-77
2022/12/06 01:40:46;;;;;;;23.23;9.57;;;;;;;-2.26;90.26;101706.75;123026;1102;104268;-77
2022/12/06 01:43:35;;;;;;;20.50;9.50;;;;;;;-2.25;90.98;101698.30;123069;1102;104303;-77
2022/12/06 01:46:17;;;;;;;19.00;8.27;;;;;;;-2.23;91.61;101691.64;123160;1102;104242;-77
2022/12/06 01:48:50;;;;;;;23.17;8.83;;;;;;;-2.23;91.56;101702.86;123055;1102;104290;-77
2022/12/06 01:51:23;;;;;;;17.37;8.00;;;;;;;-2.24;91.14;101697.55;123125;1102;104415;-77
2022/12/06 01:53:55;;;;;;;23.53;9.70;;;;;;;-2.25;91.56;101690.58;123169;1102;104817;-77
2022/12/06 01:56:26;;;;;;;21.43;9.37;;;;;;;-2.25;91.03;101694.05;123114;1102;104242;-77
2022/12/06 01:59:00;;;;;;;20.87;8.57;;;;;;;-2.25;91.76;101699.20;123099;1102;104242;-77
2022/12/06 02:01:32;;;;;;;19.33;7.90;;;;;;;-2.25;91.44;101686.34;123254;1101;104296;-77
2022/12/06 02:04:04;;;;;;;18.10;8.40;;;;;;;-2.27;91.21;101682.70;123124;1102;104348;-77
2022/12/06 02:06:35;;;;;;;21.20;8.67;;;;;;;-2.27;91.03;101685.27;123145;1102;104223;-76
2022/12/06 02:09:09;;;;;;;20.47;9.50;;;;;;;-2.28;92.26;101682.54;123027;1102;104374;-76
2022/12/06 02:11:42;;;;;;;22.87;8.87;;;;;;;-2.30;91.89;101684.95;123133;1102;104268;-77
2022/12/06 02:14:18;;;;;;;22.57;9.20;;;;;;;-2.31;92.51;101677.97;123163;1102;104379;-77
2022/12/06 02:17:02;;;;;;;20.30;8.97;;;;;;;-2.32;91.97;101673.60;123100;1102;104409;-76
2022/12/06 02:19:41;;;;;;;;;;;;;;;-2.31;92.03;101677.08;123203;1102;104345;-77
2022/12/06 02:22:18;;;;;;;19.50;8.47;;;;;;;-2.33;91.85;101668.30;123099;1102;104623;-77
2022/12/06 02:25:07;;;;;;;19.20;8.33;;;;;;;-2.34;91.86;101667.37;123068;1100;104252;-76
2022/12/06 02:28:04;;;;;;;21.77;8.23;;;;;;;-2.33;91.66;101651.20;123152;1102;104217;-76
2022/12/06 02:30:47;;;;;;;17.70;7.87;;;;;;;-2.32;92.62;101657.24;123095;1100;104255;-77
2022/12/06 02:33:25;;;;;;;21.23;8.57;;;;;;;-2.32;92.44;101650.47;123131;1102;104194;-77
2022/12/06 02:36:03;;;;;;;19.87;9.03;;;;;;;-2.32;92.62;101650.47;123108;1101;104223;-76
2022/12/06 02:38:43;;;;;;;22.43;8.87;;;;;;;-2.33;92.71;101635.77;123140;1102;104268;-77
2022/12/06 02:41:19;;;;;;;20.85;8.60;;;;;;;-2.32;91.93;101645.32;123082;1102;118785;-77
2022/12/06 02:43:56;;;;;;;18.97;9.33;;;;;;;-2.31;92.25;101641.98;123057;1102;104422;-76
2022/12/06 02:46:30;;;;;;;19.80;8.50;;;;;;;-2.30;91.61;101638.67;123080;1102;104345;-77
2022/12/06 02:49:07;;;;;;;20.00;8.03;;;;;;;-2.29;92.89;101640.50;123083;1102;104267;-76
2022/12/06 02:51:39;;;;;;;21.60;8.67;;;;;;;-2.30;92.53;101638.67;123134;1102;104376;-77
2022/12/06 02:54:12;;;;;;;19.50;8.30;;;;;;;-2.29;91.43;101630.22;123134;1102;104386;-76
2022/12/06 02:56:43;;;;;;;22.80;8.63;;;;;;;-2.29;92.57;101627.65;123077;1100;104267;-77
2022/12/06 02:59:15;;;;;;;17.70;7.93;;;;;;;-2.30;92.01;101623.24;123118;1102;104249;-76
2022/12/06 03:01:50;;;;;;;16.83;7.60;;;;;;;-2.30;92.42;101628.39;123184;1102;104226;-77
2022/12/06 03:04:47;;;;;;;17.77;8.47;;;;;;;-2.29;92.47;101626.71;123118;1101;104316;-77
2022/12/06 03:07:31;;;;;;;22.10;8.80;;;;;;;-2.27;91.95;101628.70;123121;1102;104397;-77
2022/12/06 03:10:21;;;;;;;16.37;7.57;;;;;;;-2.26;92.41;101622.83;123076;1102;104226;-76
2022/12/06 03:13:01;;;;;;;21.00;9.00;;;;;;;-2.26;92.53;101627.03;123129;1100;104267;-77
2022/12/06 03:15:48;;;;;;;16.87;7.30;;;;;;;-2.24;92.42;101622.98;123260;1102;104278;-77
2022/12/06 03:18:24;;;;;;;20.47;8.67;;;;;;;-2.22;91.85;101618.91;123103;1100;104367;-77
2022/12/06 03:20:58;;;;;;;20.00;9.05;;;;;;;-2.21;92.37;101626.78;123192;1102;105536;-77
2022/12/06 03:23:30;;;;;;;;;;;;;;;-2.19;92.40;101622.70;123222;1102;104278;-77
2022/12/06 03:26:03;;;;;;;15.60;7.00;;;;;;;-2.16;91.67;101622.12;123138;1102;104738;-77
2022/12/06 03:28:38;;;;;;;19.33;7.73;;;;;;;-2.20;91.84;101618.33;123179;1102;104395;-77
2022/12/06 03:31:12;;;;;;;20.07;8.57;;;;;;;-2.19;92.81;101617.55;123179;1102;104203;-76
2022/12/06 03:33:49;;;;;;;17.77;8.33;;;;;;;-2.20;92.31;101618.33;123152;1101;104307;-77
2022/12/06 03:36:21;;;;;;;19.77;8.77;;;;;;;-2.20;91.52;101620.89;123087;1102;104258;-77
2022/12/06 03:38:56;;;;;;;19.70;8.53;;;;;;;-2.20;91.75;101626.04;123115;1102;104287;-77
2022/12/06 03:41:32;;;;;;;20.70;8.30;;;;;;;-2.19;92.50;101619.23;123168;1102;104268;-77
2022/12/06 03:44:04;;;;;;;20.33;8.93;;;;;;;-2.18;91.89;101618.48;123191;1102;104316;-77
2022/12/06 03:46:38;;;;;;;19.93;8.63;;;;;;;-2.16;92.59;101622.12;123136;1102;104345;-77
2022/12/06 03:49:11;;;;;;;;;;;;;;;-2.15;91.69;101620.44;123235;1102;104214;-77
2022/12/06 03:51:44;;;;;;;21.07;8.77;;;;;;;-2.19;92.45;101614.98;123213;1100;105511;-77
2022/12/06 03:54:16;;;;;;;18.37;8.50;;;;;;;-2.20;92.53;101612.25;123142;1102;104274;-77
2022/12/06 03:56:47;;;;;;;21.37;8.57;;;;;;;-2.20;91.56;101615.75;123147;1102;104239;-77
2022/12/06 03:59:18;;;;;;;20.87;9.13;;;;;;;-2.19;91.67;101616.66;123168;1102;104354;-78
2022/12/06 04:01:49;;;;;;;19.50;8.90;;;;;;;-2.22;91.96;101614.66;123082;1102;104238;-77
2022/12/06 04:04:21;;;;;;;20.83;9.20;;;;;;;-2.23;92.01;101610.30;123132;1102;104310;-77
2022/12/06 04:06:52;;;;;;;22.60;10.00;;;;;;;-2.23;91.73;101619.64;123132;1102;104245;-77
2022/12/06 04:14:57;;;;;;;22.13;9.57;;;;;;;-2.24;91.85;101605.89;123088;1100;104345;-77
2022/12/06 04:23:02;;;;;;;20.30;9.50;;;;;;;-2.21;92.38;101615.59;122810;1105;104504;-77
2022/12/06 04:23:24;;;;;;;22.77;9.80;;;;;;;-2.19;92.54;101606.37;122766;1102;104232;-77
2022/12/06 04:25:56;;;;;;;21.23;9.97;;;;;;;-2.18;91.92;101606.53;122958;1102;104412;-77
2022/12/06 04:39:45;;;;;;;22.15;9.50;;;;;;;-2.22;92.27;101595.77;123094;1102;104476;-77
2022/12/06 04:45:09;;;;;;;22.37;9.33;;;;;;;-2.21;92.29;101588.20;123133;1100;104166;-77
2022/12/06 04:47:40;;;;;;;22.73;9.40;;;;;;;-2.22;91.47;101596.66;123162;1102;104341;-77
2022/12/06 04:50:11;;;;;;;23.93;10.90;;;;;;;-2.24;92.47;101595.60;123140;1101;104249;-77
2022/12/06 04:52:42;;;;;;;27.33;10.80;;;;;;;-2.28;91.84;101590.88;123147;1102;104374;-77
2022/12/06 04:55:13;;;;;;;23.40;11.00;;;;;;;-2.29;92.18;101599.36;123100;1102;104373;-77
2022/12/06 04:57:45;;;;;;;24.23;10.97;;;;;;;-2.29;91.41;101596.80;123128;1102;104226;-77
2022/12/06 05:00:17;;;;;;;24.00;10.75;;;;;;;-2.28;91.56;101587.41;123128;1100;104242;-77
2022/12/06 05:02:48;;;;;;;21.93;10.67;;;;;;;-2.28;92.44;101584.84;123157;1102;104271;-77
2022/12/06 05:05:19;;;;;;;21.93;10.27;;;;;;;-2.29;91.96;101578.80;123141;1101;104304;-77
2022/12/06 05:07:51;;;;;;;22.63;10.10;;;;;;;-2.31;92.51;101580.27;123107;1100;104294;-78
2022/12/06 05:10:22;;;;;;;23.60;10.63;;;;;;;-2.33;92.47;101576.64;123170;1102;104274;-77
2022/12/06 05:12:53;;;;;;;24.37;10.63;;;;;;;-2.34;91.56;101579.95;123192;1102;104239;-77
2022/12/06 05:15:24;;;;;;;25.27;10.97;;;;;;;-2.36;92.73;101576.33;123111;1100;104344;-77
2022/12/06 05:17:55;;;;;;;25.33;11.73;;;;;;;-2.36;92.49;101582.36;123144;1102;104304;-77
2022/12/06 05:20:26;;;;;;;27.07;11.13;;;;;;;-2.37;92.53;101575.42;123147;1100;104284;-78
2022/12/06 05:22:58;;;;;;;26.77;11.37;;;;;;;-2.38;92.55;101573.59;123213;1102;104248;-77
2022/12/06 05:25:29;;;;;;;26.07;13.60;;;;;;;-2.35;91.78;101578.16;123147;1100;104351;-77
2022/12/06 05:28:00;;;;;;;28.23;12.43;;;;;;;-2.35;91.67;101578.16;123185;1102;104704;-77
2022/12/06 05:30:31;;;;;;;26.37;11.23;;;;;;;-2.36;92.20;101572.08;123202;1102;104338;-79
2022/12/06 05:33:03;;;;;;;24.83;11.43;;;;;;;-2.34;92.36;101572.24;123319;1102;104242;-79
2022/12/06 05:35:34;;;;;;;24.07;10.83;;;;;;;-2.35;92.35;101571.34;123581;1102;104210;-79
2022/12/06 05:38:05;;;;;;;25.53;11.33;;;;;;;-2.32;92.09;101572.40;123684;1102;104328;-77
2022/12/06 05:40:39;;;;;;;26.50;12.75;;;;;;;-2.31;91.49;101579.37;123859;1101;104166;-79
2022/12/06 05:43:10;;;;;;;26.05;11.90;;;;;;;-2.32;91.64;101573.34;123817;1102;104195;-77
2022/12/06 05:45:42;;;;;;;25.57;11.97;;;;;;;-2.31;92.31;101577.70;123534;1102;104248;-77
2022/12/06 05:48:13;;;;;;;24.80;11.23;;;;;;;-2.32;92.24;101577.55;123653;1099;104329;-79
2022/12/06 05:50:47;;;;;;;24.53;11.43;;;;;;;-2.32;92.36;101581.05;123613;1102;104248;-80
2022/12/06 05:53:19;;;;;;;29.03;12.40;;;;;;;-2.34;91.56;101569.67;123745;1102;104252;-79
2022/12/06 05:55:51;;;;;;;26.43;11.93;;;;;;;-2.31;91.47;101576.80;123752;1100;104430;-80
2022/12/06 05:58:22;;;;;;;27.70;11.95;;;;;;;-2.28;91.95;101577.13;123644;1102;104278;-78
2022/12/06 06:00:53;;;;;;;30.97;12.90;;;;;;;-2.26;92.48;101566.27;123584;1102;104248;-78
2022/12/06 06:03:24;;;;;;;28.90;12.20;;;;;;;-2.21;92.55;101562.49;123624;1102;104686;-79
2022/12/06 06:05:59;;;;;;;26.27;12.00;;;;;;;-2.14;91.77;101565.70;123757;1102;104255;-78
2022/12/06 06:08:31;;;;;;;27.83;12.43;;;;;;;-2.08;92.35;101568.91;123813;1102;102163;-76
2022/12/06 06:11:02;;;;;;;23.63;11.13;;;;;;;-2.04;92.02;101577.09;123531;1102;104281;-78
2022/12/06 06:13:33;;;;;;;27.67;11.83;;;;;;;-1.99;92.04;101573.33;123553;1102;104194;-79
2022/12/06 06:16:05;;;;;;;24.23;11.13;;;;;;;-1.96;92.42;101580.45;123559;1102;104406;-77
2022/12/06 06:18:36;;;;;;;25.57;12.00;;;;;;;-1.96;92.13;101576.95;123878;1102;104357;-80
2022/12/06 06:21:09;;;;;;;25.60;11.73;;;;;;;-1.97;91.87;101578.63;123667;1102;104753;-77
2022/12/06 06:23:40;;;;;;;25.53;11.23;;;;;;;-1.94;91.81;101572.89;123942;1102;104242;-81
2022/12/06 06:26:12;;;;;;;27.60;12.10;;;;;;;-1.94;91.35;101576.37;124014;1099;104294;-78
2022/12/06 06:28:43;;;;;;;24.70;12.27;;;;;;;-1.93;91.47;101575.63;125046;1102;104165;-78
2022/12/06 06:31:15;;;;;;;26.73;12.33;;;;;;;-1.85;92.51;101567.02;125013;1099;104342;-75
2022/12/06 06:33:46;;;;;;;25.83;12.20;;;;;;;-1.77;92.74;101577.20;124878;1102;104243;-75
2022/12/06 06:36:17;;;;;;;27.83;13.30;;;;;;;-1.72;92.44;101570.84;124875;1102;102676;-75
2022/12/06 06:38:48;;;;;;;29.53;12.83;;;;;;;-1.69;91.34;101568.59;124787;1102;104223;-76
2022/12/06 06:41:19;;;;;;;30.37;12.33;;;;;;;-1.65;91.06;101568.16;124851;1102;104296;-74
2022/12/06 06:43:51;;;;;;;28.07;12.40;;;;;;;-1.63;91.21;101574.36;124731;1102;102348;-74
2022/12/06 06:46:22;;;;;;;27.03;11.67;;;;;;;-1.64;91.33;101567.38;124429;1100;103067;-75
2022/12/06 06:48:53;;;;;;;26.70;12.13;;;;;;;-1.64;91.11;101567.38;124730;1102;102921;-75
2022/12/06 06:51:41;;;;;;;28.80;11.80;;;;;;;-1.58;91.39;101568.00;124477;1100;104350;-75
2022/12/06 06:54:14;;;;;;;26.63;11.60;;;;;;;-1.54;92.26;101564.98;124658;1102;102636;-74
2022/12/06 06:56:53;;;;;;;26.40;10.97;;;;;;;-1.46;91.83;101552.89;124352;1102;104246;-76
2022/12/06 06:59:25;;;;;;;26.47;11.23;;;;;;;-1.40;91.71;101557.73;124322;1102;104206;-76
2022/12/06 07:01:56;;;;;;;26.27;11.07;;;;;;;-1.39;91.48;101547.58;124288;1102;102489;-76
2022/12/06 07:04:29;;;;;;;28.50;11.90;;;;;;;-1.36;91.26;101541.84;124310;1101;104274;-77
2022/12/06 07:07:00;;;;;;;28.77;12.30;;;;;;;-1.32;90.99;101550.02;124450;1102;109762;-78
2022/12/06 07:09:32;;;;;;;23.13;10.53;;;;;;;-1.30;91.50;101540.77;124531;1102;103649;-76
2022/12/06 07:12:03;;;;;;;23.43;10.37;;;;;;;-1.27;91.15;101547.91;124435;1102;102884;-78
2022/12/06 07:14:34;;;;;;;22.60;9.83;;;;;;;-1.21;90.62;101545.05;124418;1102;103602;-77
2022/12/06 07:17:05;;;;;;;27.00;10.80;;;;;;;-1.18;91.22;101535.95;124443;1102;104277;-77
2022/12/06 07:19:39;;;;;;;21.90;9.90;;;;;;;-1.11;91.03;101533.23;124517;1102;104261;-77
2022/12/06 07:22:13;;;;;;;23.93;10.10;;;;;;;-1.04;91.14;101528.65;124498;1102;104277;-77
2022/12/06 07:24:45;;;;;;;20.92;10.03;;;;;;;-0.99;90.43;101522.30;124455;1100;104283;-75
2022/12/06 07:27:16;;;;;;;25.20;10.67;;;;;;;-0.94;89.47;101531.38;124335;1102;104262;-75
2022/12/06 07:29:47;;;;;;;25.67;10.97;;;;;;;-0.86;90.62;101532.14;124655;1102;104201;-76
2022/12/06 07:32:19;;;;;;;25.77;10.97;;;;;;;-0.77;89.98;101533.03;124471;1102;104251;-77
2022/12/06 07:34:50;;;;;;;25.23;11.20;;;;;;;-0.75;89.75;101532.44;124305;1101;102137;-77
2022/12/06 07:37:21;;;;;;;28.00;10.90;;;;;;;-0.74;89.27;101526.50;124249;1102;102429;-75
2022/12/06 07:39:53;;;;;;;25.73;11.60;;;;;;;-0.70;90.12;101525.16;124395;1102;104232;-76
2022/12/06 07:45:15;;;;;;;26.57;11.43;;;;;;;-0.61;90.50;101525.11;124402;1102;102419;-75
2022/12/06 07:47:49;;;;;;;26.47;10.83;;;;;;;-0.54;89.97;101514.64;124503;1102;104236;-77
2022/12/06 07:50:24;;;;;;;25.30;11.30;;;;;;;-0.47;90.83;101524.77;124744;1102;104153;-76
2022/12/06 07:52:55;;;;;;;25.32;11.83;;;;;;;-0.38;90.35;101520.48;124653;1102;104178;-76
2022/12/06 07:55:26;;;;;;;25.67;10.93;;;;;;;-0.33;90.21;101515.77;124696;1100;104277;-76
2022/12/06 07:57:58;;;;;;;24.70;11.17;;;;;;;-0.32;89.07;101509.86;124475;1102;104137;-75
2022/12/06 08:00:29;;;;;;;23.03;11.00;;;;;;;-0.32;89.19;101512.44;124456;1102;104661;-75
2022/12/06 08:03:01;;;;;;;21.30;10.20;;;;;;;-0.24;89.54;101510.59;124379;1102;104380;-75
2022/12/06 08:05:35;;;;;;;22.58;9.78;;;;;;;-0.10;90.37;101501.58;124626;1102;104050;-76
2022/12/06 08:08:07;;;;;;;22.67;10.70;;;;;;;0.06;89.92;101497.07;124827;1100;104278;-76
2022/12/06 08:10:38;;;;;;;22.47;10.23;;;;;;;0.19;89.88;101504.31;124715;1099;102634;-77
2022/12/06 08:13:09;;;;;;;29.03;10.40;;;;;;;0.25;89.92;101503.95;124249;1102;104172;-77
2022/12/06 08:15:42;;;;;;;22.87;10.70;;;;;;;0.27;89.42;101500.77;124469;1102;102743;-78
2022/12/06 08:18:16;;;;;;;23.53;10.30;;;;;;;0.30;89.71;101495.88;124675;1102;103412;-79
2022/12/06 08:20:47;;;;;;;22.37;10.18;;;;;;;0.31;89.67;101502.88;124407;1102;104053;-77
2022/12/06 08:23:21;;;;;;;22.77;10.23;;;;;;;0.28;89.52;101502.59;124369;1102;103966;-77
2022/12/06 08:26:00;;;;;;;23.50;10.58;;;;;;;0.25;89.30;101497.14;124471;1102;102325;-77
2022/12/06 08:28:48;;;;;;;21.90;10.13;;;;;;;0.25;89.40;101493.63;124138;1102;104367;-76
2022/12/06 08:31:35;;;;;;;26.97;11.03;;;;;;;0.20;89.24;101475.13;124356;1102;104168;-74
2022/12/06 08:34:07;;;;;;;23.93;10.27;;;;;;;0.33;89.62;101487.52;124350;1102;104236;-75
2022/12/06 08:36:40;;;;;;;26.93;11.20;;;;;;;0.37;89.35;101491.28;124340;1102;104130;-74
2022/12/06 08:39:12;;;;;;;23.77;11.40;;;;;;;0.32;89.15;101485.70;124538;1101;104182;-77
2022/12/06 08:41:57;;;;;;;23.47;11.67;;;;;;;0.32;89.12;101489.17;126003;1101;103332;-76
2022/12/06 08:44:31;;;;;;;23.83;11.37;;;;;;;0.30;88.71;101490.72;126007;1102;102732;-75
2022/12/06 08:47:03;;;;;;;23.50;10.13;;;;;;;0.33;89.04;101490.11;126044;1100;102823;-74
2022/12/06 08:49:34;;;;;;;22.43;10.13;;;;;;;0.39;89.30;101488.09;125950;1101;103203;-75
2022/12/06 08:52:06;;;;;;;22.33;10.60;;;;;;;0.47;89.90;101469.03;126078;1099;102115;-75
2022/12/06 08:54:37;;;;;;;22.23;10.30;;;;;;;0.55;89.58;101474.90;125960;1099;103841;-77
2022/12/06 08:57:09;;;;;;;23.87;10.53;;;;;;;0.60;89.42;101473.63;125825;1100;102822;-76
2022/12/06 08:59:41;;;;;;;25.50;11.30;;;;;;;0.60;88.37;101465.88;126144;1101;102151;-75
2022/12/06 09:02:14;;;;;;;25.40;10.77;;;;;;;0.55;88.58;101456.82;125954;1101;102722;-77
2022/12/06 09:04:46;;;;;;;21.10;9.97;;;;;;;0.57;88.46;101449.21;126157;1100;101891;-75
2022/12/06 09:07:18;;;;;;;23.13;10.57;;;;;;;0.60;88.59;101446.91;126084;1102;102978;-78
2022/12/06 09:09:51;;;;;;;25.37;11.80;;;;;;;0.64;88.80;101442.16;126407;1099;102978;-77
2022/12/06 09:12:26;;;;;;;24.37;11.27;;;;;;;0.67;88.42;101441.50;126108;1099;101892;-76
2022/12/06 09:14:57;;;;;;;29.43;11.63;;;;;;;0.66;88.11;101442.30;126184;1099;101406;-77
2022/12/06 09:17:29;;;;;;;26.37;11.77;;;;;;;0.68;88.89;101448.50;126237;1100;101835;-77
2022/12/06 09:20:00;;;;;;;27.40;12.03;;;;;;;0.73;88.75;101444.64;126246;1100;101954;-76
2022/12/06 09:22:32;;;;;;;27.57;12.93;;;;;;;0.70;88.89;101441.78;126007;1100;102168;-77
2022/12/06 09:25:04;;;;;;;25.77;12.03;;;;;;;0.66;88.09;101440.61;126025;1101;101986;-78
2022/12/06 09:27:37;;;;;;;27.73;12.37;;;;;;;0.65;87.83;101431.03;125931;1101;102859;-76
2022/12/06 09:30:11;;;;;;;26.97;12.07;;;;;;;0.64;88.58;101425.73;126011;1102;102771;-77
2022/12/06 09:32:41;;;;;;;;;;;;;;;0.64;88.40;101418.91;126086;1100;102855;-77
2022/12/06 09:35:12;;;;;;;31.03;14.67;;;;;;;0.62;88.35;101407.51;125081;1102;102721;-75
2022/12/06 09:37:44;;;;;;;32.03;13.50;;;;;;;0.63;88.05;101417.08;124540;1103;104284;-78
2022/12/06 09:40:24;;;;;;;28.35;12.60;;;;;;;0.63;88.59;101405.86;124562;1102;104278;-77
2022/12/06 09:43:14;;;;;;;30.37;11.60;;;;;;;0.55;87.76;101405.16;124556;1102;102293;-76
2022/12/06 09:46:09;;;;;;;29.30;12.23;;;;;;;0.49;88.44;101399.45;124474;1102;104281;-78
2022/12/06 09:49:00;;;;;;;28.93;13.00;;;;;;;0.43;88.29;101394.62;124649;1102;103678;-77
2022/12/06 09:51:54;;;;;;;28.57;13.07;;;;;;;0.42;87.92;101394.48;124551;1100;104268;-77
2022/12/06 09:54:48;;;;;;;36.60;14.77;;;;;;;0.40;88.15;101391.77;124628;1102;103082;-77
2022/12/06 09:57:29;;;;;;;28.93;12.47;;;;;;;0.41;88.68;101380.67;124576;1102;102874;-77
2022/12/06 10:00:12;;;;;;;28.13;11.63;;;;;;;0.39;88.57;101381.30;124530;1102;104302;-79
2022/12/06 10:03:06;;;;;;;32.30;13.67;;;;;;;0.37;88.22;101382.84;124527;1102;104175;-76
2022/12/06 10:06:00;;;;;;;33.43;12.60;;;;;;;0.34;88.07;101367.97;124573;1102;102533;-76
2022/12/06 10:08:50;;;;;;;29.23;13.30;;;;;;;0.34;88.61;101370.55;124547;1101;104191;-78
2022/12/06 10:11:39;;;;;;;28.40;12.20;;;;;;;0.33;88.39;101366.17;124568;1101;102049;-76
2022/12/06 10:14:20;;;;;;;31.53;11.87;;;;;;;0.32;88.70;101361.77;124613;1101;104344;-77
2022/12/06 10:17:01;;;;;;;29.43;12.33;;;;;;;0.33;88.68;101356.74;124546;1102;104271;-78
2022/12/06 10:19:59;;;;;;;27.27;12.47;;;;;;;0.31;88.91;101360.88;124576;1100;104690;-81
2022/12/06 10:22:43;;;;;;;38.07;13.33;;;;;;;0.35;88.93;101354.30;126677;1100;102052;-77
2022/12/06 10:25:23;;;;;;;28.60;12.83;;;;;;;0.42;88.76;101351.52;126518;1100;102173;-77
2022/12/06 10:28:06;;;;;;;26.80;11.40;;;;;;;0.43;88.94;101348.14;126013;1101;102577;-77
2022/12/06 10:30:51;;;;;;;27.03;11.53;;;;;;;0.43;88.87;101348.14;126241;1099;102805;-77
2022/12/06 10:33:33;;;;;;;25.20;11.73;;;;;;;0.44;88.63;101339.64;126247;1099;101995;-78
2022/12/06 10:36:08;;;;;;;29.00;12.97;;;;;;;0.48;88.70;101336.57;125660;1099;101766;-79
2022/12/06 10:38:44;;;;;;;26.60;11.80;;;;;;;0.50;89.30;101334.13;125193;1099;104245;-79
2022/12/06 10:41:21;;;;;;;28.43;12.40;;;;;;;0.49;88.79;101332.30;124812;1099;104191;-78
2022/12/06 10:43:58;;;;;;;29.93;12.13;;;;;;;0.50;89.34;101326.38;124960;1098;104197;-79
2022/12/06 10:49:28;;;;;;;28.53;12.37;;;;;;;0.44;88.16;101318.09;125112;1099;104372;-78
2022/12/06 10:52:14;;;;;;;28.60;13.10;;;;;;;0.42;88.97;101320.53;125407;1099;103971;-76
2022/12/06 10:54:56;;;;;;;30.57;12.53;;;;;;;0.41;88.72;101308.37;125530;1098;104226;-77
2022/12/06 10:57:38;;;;;;;29.00;12.73;;;;;;;0.39;88.45;101309.00;124858;1099;102831;-77
2022/12/06 11:00:17;;;;;;;31.85;13.80;;;;;;;0.42;89.06;101311.85;125257;1098;102924;-77
2022/12/06 11:03:01;;;;;;;31.53;14.10;;;;;;;0.43;88.82;101305.93;125338;1099;104219;-77
2022/12/06 11:05:51;;;;;;;30.20;12.40;;;;;;;0.42;88.74;101304.11;126643;1098;102530;-76
2022/12/06 11:08:30;;;;;;;25.37;12.73;;;;;;;0.40;88.33;101303.08;126092;1099;101836;-77
2022/12/06 11:11:03;;;;;;;27.63;12.57;;;;;;;0.34;88.20;101306.94;126686;1099;102085;-76
2022/12/06 11:13:41;;;;;;;26.42;12.23;;;;;;;0.34;88.48;101296.61;126739;1098;101902;-78
2022/12/06 11:16:17;;;;;;;26.73;12.67;;;;;;;0.34;88.39;101290.52;126741;1098;102236;-76
2022/12/06 11:18:49;;;;;;;26.50;11.20;;;;;;;0.32;88.67;101294.64;126161;1099;101860;-77
2022/12/06 11:21:28;;;;;;;29.63;13.17;;;;;;;0.32;88.46;101298.13;126107;1099;104294;-79
2022/12/06 11:24:05;;;;;;;29.27;12.57;;;;;;;0.33;88.52;101284.45;126747;1099;101590;-78
2022/12/06 11:26:43;;;;;;;26.20;12.27;;;;;;;0.34;88.79;101287.93;126760;1098;102806;-77
2022/12/06 11:29:16;;;;;;;26.87;12.03;;;;;;;0.30;88.64;101273.86;126617;1099;101849;-78
2022/12/06 11:31:50;;;;;;;27.90;13.53;;;;;;;0.26;88.45;101270.86;126739;1099;102428;-78
2022/12/06 11:34:21;;;;;;;;;;;;;;;0.28;88.98;101271.89;126757;1098;103098;-78
2022/12/06 11:37:03;;;;;;;26.40;12.50;;;;;;;0.28;89.16;101262.50;126645;1099;103002;-76
2022/12/06 11:39:43;;;;;;;25.63;12.33;;;;;;;0.26;89.03;101260.53;126737;1099;102701;-75
2022/12/06 11:42:23;;;;;;;27.03;12.10;;;;;;;0.21;88.35;101259.23;126628;1099;102882;-75
2022/12/06 11:44:57;;;;;;;27.33;12.53;;;;;;;0.17;88.98;101250.28;126833;1099;101991;-76
2022/12/06 11:47:31;;;;;;;25.63;12.57;;;;;;;0.17;88.66;101251.22;124572;1099;104402;-75
2022/12/06 11:50:15;;;;;;;;;;;;;;;0.22;89.34;101241.30;124910;1098;104233;-77
2022/12/06 11:52:52;;;;;;;27.10;12.07;;;;;;;0.21;89.13;101238.58;124619;1099;104357;-74
2022/12/06 11:55:27;;;;;;;26.80;12.37;;;;;;;0.19;89.46;101241.03;124847;1099;104233;-76
2022/12/06 11:58:07;;;;;;;31.00;13.23;;;;;;;0.17;89.21;101242.55;124907;1099;104156;-76
2022/12/06 12:00:58;;;;;;;25.43;12.23;;;;;;;0.18;89.21;101241.78;124536;1099;103007;-77
2022/12/06 12:03:34;;;;;;;29.07;12.63;;;;;;;0.19;89.29;101230.70;124596;1099;107905;-78
2022/12/06 12:06:21;;;;;;;26.93;12.50;;;;;;;0.18;88.97;101234.04;125114;1099;103004;-75